createdAt,value
2019-04-05T04:45:13.041Z,28.57
2019-04-05T04:50:54.321Z,29.53
2019-04-05T05:54:33.571Z,33.13
2019-04-05T06:13:53.749Z,36.80
2019-04-05T06:26:05.101Z,35.93
2019-04-05T06:32:05.529Z,34.83
2019-04-05T06:39:00.220Z,34.27
2019-04-05T06:40:43.242Z,32.77
2019-04-05T06:43:36.907Z,38.47
2019-04-05T06:49:17.951Z,32.30
2019-04-05T06:54:59.967Z,34.60
2019-04-05T07:00:56.934Z,35.40
2019-04-05T10:01:26.172Z,20.20
2019-04-05T10:15:52.225Z,26.00
2019-04-05T10:19:15.378Z,20.57
2019-04-05T10:32:22.634Z,23.67
2019-04-05T11:06:02.199Z,25.23
2019-04-05T11:42:58.636Z,25.07
2019-04-05T12:01:29.356Z,30.50
2019-04-05T12:17:45.090Z,30.03
2019-04-05T12:20:21.959Z,35.97
2019-04-05T12:23:15.848Z,30.20
2019-04-05T12:26:03.793Z,27.80
2019-04-05T12:32:09.418Z,28.17
2019-04-05T12:37:28.964Z,33.43
2019-04-05T12:43:21.694Z,30.03
2019-04-05T12:46:16.105Z,28.87
2019-04-05T12:49:03.136Z,29.33
2019-04-05T12:54:35.366Z,28.10
2019-04-05T12:57:03.885Z,29.03
2019-04-05T12:59:32.423Z,25.23
2019-04-05T13:02:00.958Z,27.37
2019-04-05T13:04:35.120Z,27.87
2019-04-05T13:07:04.937Z,30.00
2019-04-05T13:09:33.391Z,28.30
2019-04-05T13:12:01.802Z,25.90
2019-04-05T13:14:30.257Z,26.30
2019-04-05T13:17:01.579Z,30.87
2019-04-05T13:19:33.717Z,27.93
2019-04-05T13:22:06.147Z,26.83
2019-04-05T13:24:40.595Z,23.87
2019-04-05T13:27:11.371Z,21.60
2019-04-05T13:29:39.216Z,27.27
2019-04-05T13:32:07.734Z,26.40
2019-04-05T13:34:36.225Z,26.40
2019-04-05T13:37:04.714Z,25.07
2019-04-05T13:42:25.450Z,24.97
2019-04-05T13:45:10.731Z,24.27
2019-04-05T13:47:46.495Z,23.00
2019-04-05T13:50:15.553Z,25.97
2019-04-05T13:52:44.019Z,23.97
2019-04-05T13:55:12.579Z,21.57
2019-04-05T13:57:41.298Z,22.47
2019-04-05T14:00:10.686Z,28.17
2019-04-05T14:02:39.104Z,23.43
2019-04-05T14:05:08.019Z,21.20
2019-04-05T14:07:36.472Z,22.93
2019-04-05T14:10:10.628Z,21.80
2019-04-05T14:12:39.617Z,21.43
2019-04-05T14:15:10.679Z,26.10
2019-04-05T14:17:38.576Z,22.93
2019-04-05T14:20:09.044Z,23.77
2019-04-05T14:22:37.906Z,21.23
2019-04-05T14:25:08.606Z,23.13
2019-04-05T14:27:36.995Z,23.97
2019-04-05T14:30:06.946Z,27.43
2019-04-05T14:32:35.489Z,24.90
2019-04-05T14:35:07.713Z,24.73
2019-04-05T14:37:35.504Z,27.27
2019-04-05T14:40:06.189Z,23.80
2019-04-05T14:42:34.648Z,22.47
2019-04-05T14:45:03.357Z,28.17
2019-04-05T14:47:31.765Z,25.10
2019-04-05T14:50:00.913Z,23.23
2019-04-05T14:52:31.240Z,23.27
2019-04-05T14:54:59.981Z,23.67
2019-04-05T14:57:29.047Z,25.30
2019-04-05T14:59:57.485Z,26.03
2019-04-05T15:02:25.905Z,24.40
2019-04-05T15:04:54.337Z,28.00
2019-04-05T15:07:22.766Z,27.40
2019-04-05T15:09:54.791Z,27.93
2019-04-05T15:12:21.345Z,26.03
2019-04-05T15:14:49.816Z,25.77
2019-04-05T15:17:18.219Z,25.60
2019-04-05T15:19:46.629Z,28.13
2019-04-05T15:22:15.185Z,26.77
2019-04-05T15:24:44.629Z,27.43
2019-04-05T15:27:13.737Z,30.03
2019-04-05T15:29:42.178Z,26.43
2019-04-05T15:32:10.610Z,27.13
2019-04-05T15:34:39.037Z,31.17
2019-04-05T15:37:07.465Z,31.73
2019-04-05T15:39:36.033Z,26.17
2019-04-05T15:42:04.689Z,30.13
2019-04-05T15:44:33.166Z,30.93
2019-04-05T15:47:01.607Z,29.67
2019-04-05T15:49:30.019Z,30.20
2019-04-05T15:51:58.964Z,34.27
2019-04-05T15:54:29.008Z,33.30
2019-04-05T15:56:57.799Z,30.87
2019-04-05T15:59:26.925Z,33.37
2019-04-05T16:01:55.358Z,32.03
2019-04-05T16:04:24.530Z,35.17
2019-04-05T16:06:52.929Z,35.40
2019-04-05T16:09:22.519Z,39.53
2019-04-05T16:11:50.918Z,36.20
2019-04-05T16:14:19.378Z,35.70
2019-04-05T16:16:47.865Z,32.23
2019-04-05T16:19:16.302Z,34.23
2019-04-05T16:21:44.706Z,33.00
2019-04-05T16:24:13.171Z,33.30
2019-04-05T16:26:41.667Z,33.17
2019-04-05T16:29:10.293Z,34.00
2019-04-05T16:31:38.708Z,34.73
2019-04-05T16:34:07.200Z,32.77
2019-04-05T16:36:35.695Z,33.07
2019-04-05T16:39:07.354Z,35.03
2019-04-05T16:41:35.778Z,35.63
2019-04-05T16:44:04.181Z,35.00
2019-04-05T16:46:32.627Z,36.27
2019-04-05T16:49:01.043Z,34.33
2019-04-05T16:51:29.470Z,36.43
2019-04-05T16:54:01.644Z,38.87
2019-04-05T16:56:30.530Z,34.93
2019-04-05T16:58:59.410Z,31.70
2019-04-05T17:01:28.003Z,36.37
2019-04-05T17:03:56.458Z,34.90
2019-04-05T17:06:24.986Z,33.23
2019-04-05T17:08:53.454Z,34.47
2019-04-05T17:11:21.956Z,37.10
2019-04-05T17:13:50.511Z,34.67
2019-04-05T17:16:18.969Z,37.87
2019-04-05T17:18:47.478Z,36.80
2019-04-05T17:21:15.894Z,41.63
2019-04-05T17:23:44.311Z,37.30
2019-04-05T17:26:12.737Z,39.63
2019-04-05T17:28:41.142Z,33.57
2019-04-05T17:31:09.551Z,39.30
2019-04-05T17:33:38.055Z,43.07
2019-04-05T17:36:06.457Z,37.43
2019-04-05T17:38:34.894Z,40.43
2019-04-05T17:41:03.314Z,37.60
2019-04-05T17:43:31.753Z,39.30
2019-04-05T17:46:00.190Z,38.23
2019-04-05T17:48:29.538Z,42.07
2019-04-05T17:50:59.134Z,41.70
2019-04-05T17:53:30.789Z,39.63
2019-04-05T17:56:00.069Z,37.57
2019-04-05T17:58:29.808Z,38.37
2019-04-05T18:00:58.632Z,34.07
2019-04-05T18:03:28.624Z,35.27
2019-04-05T18:06:05.280Z,36.17
2019-04-05T18:08:36.254Z,41.67
2019-04-05T18:11:05.338Z,33.83
2019-04-05T18:13:39.494Z,38.00
2019-04-05T18:16:09.441Z,40.30
2019-04-05T18:18:42.292Z,38.53
2019-04-05T18:21:14.353Z,44.90
2019-04-05T18:23:46.735Z,44.63
2019-04-05T18:26:15.362Z,45.73
2019-04-05T18:28:43.985Z,47.23
2019-04-05T18:31:12.545Z,48.07
2019-04-05T18:33:41.028Z,44.17
2019-04-05T18:36:09.678Z,45.60
2019-04-05T18:38:38.177Z,41.33
2019-04-05T18:41:06.647Z,42.67
2019-04-05T18:43:35.123Z,45.23
2019-04-05T18:46:03.548Z,40.90
2019-04-05T18:48:32.042Z,40.17
2019-04-05T18:51:00.459Z,38.23
2019-04-05T18:53:37.478Z,38.83
2019-04-05T18:55:59.083Z,37.03
2019-04-05T18:58:31.476Z,40.47
2019-04-05T19:01:00.016Z,35.03
2019-04-05T19:03:28.505Z,36.73
2019-04-05T19:05:56.946Z,33.63
2019-04-05T19:08:39.606Z,31.67
2019-04-05T19:11:06.416Z,29.67
2019-04-05T19:13:34.891Z,32.73
2019-04-05T19:16:03.570Z,35.60
2019-04-05T19:18:32.687Z,30.83
2019-04-05T19:21:01.266Z,30.90
2019-04-05T19:23:29.803Z,36.97
2019-04-05T19:25:58.304Z,32.97
2019-04-05T19:28:27.322Z,36.03
2019-04-05T19:50:58.393Z,38.33
2019-04-05T19:53:26.834Z,39.63
2019-04-05T19:55:55.287Z,36.97
2019-04-05T19:58:23.724Z,37.70
2019-04-05T20:00:52.137Z,40.03
2019-04-05T20:03:20.577Z,39.57
2019-04-05T20:05:49.051Z,38.93
2019-04-05T20:08:17.580Z,36.60
2019-04-05T20:10:46.062Z,36.80
2019-04-05T20:13:14.588Z,37.70
2019-04-05T20:15:42.999Z,35.83
2019-04-05T20:18:11.534Z,37.43
2019-04-05T20:20:40.038Z,35.70
2019-04-05T20:23:08.559Z,37.17
2019-04-05T20:25:37.161Z,32.03
2019-04-05T20:28:05.590Z,35.23
2019-04-05T20:30:34.318Z,37.73
2019-04-05T20:33:02.789Z,33.93
2019-04-05T20:35:31.249Z,39.50
2019-04-05T20:37:59.658Z,34.57
2019-04-05T20:40:42.099Z,32.93
2019-04-05T20:43:15.623Z,30.90
2019-04-05T20:45:43.509Z,34.47
2019-04-05T20:48:11.918Z,35.10
2019-04-05T20:50:40.450Z,32.20
2019-04-05T20:53:08.937Z,34.93
2019-04-05T20:55:37.531Z,35.47
2019-04-05T20:58:05.985Z,40.37
2019-04-05T21:00:34.467Z,36.63
2019-04-05T21:03:03.099Z,33.47
2019-04-05T21:05:31.599Z,33.90
2019-04-05T21:08:00.155Z,37.47
2019-04-05T21:10:30.294Z,35.87
2019-04-05T21:12:58.868Z,37.80
2019-04-05T21:15:28.687Z,39.13
2019-04-05T21:17:57.623Z,37.87
2019-04-05T21:20:26.035Z,34.20
2019-04-05T21:22:54.648Z,37.87
2019-04-05T21:25:23.158Z,34.97
2019-04-05T21:27:51.633Z,37.90
2019-04-05T21:30:20.240Z,35.97
2019-04-05T21:32:48.652Z,33.53
2019-04-05T21:35:17.121Z,34.30
2019-04-05T21:37:45.589Z,39.97
2019-04-05T21:40:14.250Z,35.43
2019-04-05T21:42:44.705Z,37.67
2019-04-05T21:45:13.258Z,35.67
2019-04-05T21:47:41.697Z,37.60
2019-04-05T21:50:11.226Z,36.63
2019-04-05T21:52:39.726Z,37.33
2019-04-05T21:55:08.454Z,35.23
2019-04-05T21:57:36.845Z,36.57
2019-04-05T22:00:26.557Z,37.97
2019-04-05T22:02:55.037Z,41.90
2019-04-05T22:05:23.500Z,39.73
2019-04-05T22:07:51.887Z,37.70
2019-04-05T22:10:20.396Z,38.43
2019-04-05T22:12:48.882Z,38.57
2019-04-05T22:15:17.290Z,39.73
2019-04-05T22:17:45.825Z,37.37
2019-04-05T22:20:14.828Z,40.07
2019-04-05T22:22:43.231Z,39.37
2019-04-05T22:25:11.729Z,38.00
2019-04-05T22:27:40.146Z,37.07
2019-04-05T22:30:08.941Z,37.93
2019-04-05T22:32:37.340Z,34.77
2019-04-05T22:35:06.172Z,38.00
2019-04-05T22:37:34.599Z,33.93
2019-04-05T22:40:03.281Z,36.10
2019-04-05T22:42:31.826Z,37.23
2019-04-05T22:45:00.271Z,37.63
2019-04-05T22:47:28.672Z,36.97
2019-04-05T22:49:57.180Z,38.90
2019-04-05T22:52:25.584Z,38.77
2019-04-05T22:54:54.098Z,38.83
2019-04-05T22:57:22.584Z,38.70
2019-04-05T22:59:51.080Z,38.47
2019-04-05T23:02:19.689Z,36.53
2019-04-05T23:04:48.210Z,39.00
2019-04-05T23:07:16.721Z,38.83
2019-04-05T23:09:45.122Z,38.13
2019-04-05T23:12:13.546Z,36.90
2019-04-05T23:14:41.949Z,35.77
2019-04-05T23:17:10.446Z,40.07
2019-04-05T23:19:38.884Z,38.53
2019-04-05T23:22:07.296Z,35.27
2019-04-05T23:24:35.752Z,37.17
2019-04-05T23:27:04.158Z,38.67
2019-04-05T23:29:32.564Z,34.70
2019-04-05T23:32:01.003Z,33.13
2019-04-05T23:34:29.406Z,33.50
2019-04-05T23:36:57.868Z,35.33
2019-04-05T23:39:26.356Z,35.47
2019-04-05T23:41:54.752Z,32.63
2019-04-05T23:44:23.273Z,32.13
2019-04-05T23:46:52.731Z,35.43
2019-04-05T23:49:21.304Z,33.93
2019-04-05T23:51:49.748Z,29.73
2019-04-05T23:54:18.206Z,32.67
2019-04-05T23:56:46.737Z,32.00
2019-04-05T23:59:15.166Z,30.50
